Time;durP1;ratioP1;P1;durP2;ratioP2;P2;SDS_P1;SDS_P2;PMS_P1;PMS_P2;Temp;Humidity;BMP_temperature;BMP_pressure;BME280_temperature;BME280_humidity;BME280_pressure;Samples;Min_cycle;Max_cycle;Signal;HPM_P1;HPM_P2
2023/06/01 00:00:21;;;;;;;5.88;3.80;;;12.30;41.90;;;;;;6188553;23;20408;-90
2023/06/01 00:03:09;;;;;;;10.10;3.97;;;12.30;51.30;;;;;;6165105;23;20039;-92
2023/06/01 00:05:56;;;;;;;7.63;4.38;;;12.20;57.40;;;;;;6165805;23;20032;-93
2023/06/01 00:08:44;;;;;;;7.20;4.05;;;12.10;84.70;;;;;;6176053;23;20052;-91
2023/06/01 00:11:31;;;;;;;8.25;4.13;;;12.10;81.50;;;;;;6200835;23;20017;-92
2023/06/01 00:14:18;;;;;;;8.32;3.85;;;12.10;89.30;;;;;;6168936;23;20036;-91
2023/06/01 00:17:07;;;;;;;11.48;3.67;;;12.20;93.00;;;;;;6167270;23;20044;-93
2023/06/01 00:19:57;;;;;;;8.50;3.83;;;12.20;92.30;;;;;;6168596;23;20025;-90
2023/06/01 00:22:46;;;;;;;6.68;3.85;;;12.10;95.40;;;;;;6188102;23;20048;-91
2023/06/01 00:25:34;;;;;;;8.07;3.65;;;12.20;99.90;;;;;;6166467;23;20452;-92
2023/06/01 00:28:21;;;;;;;7.40;3.95;;;12.10;99.90;;;;;;6167813;23;20040;-92
2023/06/01 00:31:11;;;;;;;10.07;3.70;;;12.10;99.90;;;;;;6165159;23;20025;-90
2023/06/01 00:33:59;;;;;;;8.45;4.82;;;12.00;99.90;;;;;;6163658;23;20025;-91
2023/06/01 00:36:49;;;;;;;5.85;4.13;;;12.00;99.90;;;;;;6146801;23;20025;-92
2023/06/01 00:39:36;;;;;;;8.77;4.00;;;12.00;99.70;;;;;;6168482;23;20459;-91
2023/06/01 00:42:24;;;;;;;5.63;3.72;;;12.00;99.90;;;;;;6177957;23;20025;-92
2023/06/01 00:45:11;;;;;;;10.90;4.00;;;12.00;99.90;;;;;;6178771;23;20025;-91
2023/06/01 00:47:59;;;;;;;8.25;3.78;;;12.00;99.90;;;;;;6171992;23;20029;-91
2023/06/01 00:50:47;;;;;;;10.85;4.13;;;11.90;99.90;;;;;;6163589;23;20064;-92
2023/06/01 00:53:36;;;;;;;7.50;3.85;;;11.90;99.90;;;;;;6166483;23;20053;-92
2023/06/01 00:56:26;;;;;;;6.30;4.40;;;11.90;95.90;;;;;;6164658;23;20029;-92
2023/06/01 00:59:13;;;;;;;10.52;4.47;;;11.90;99.90;;;;;;6164383;23;20037;-91
2023/06/01 01:02:03;;;;;;;9.80;4.15;;;11.90;99.90;;;;;;6164075;23;20483;-91
2023/06/01 01:04:52;;;;;;;6.68;4.07;;;11.90;99.90;;;;;;6164317;23;20298;-92
2023/06/01 01:08:14;;;;;;;11.45;3.95;;;11.90;99.90;;;;;;6165538;23;20025;-88
2023/06/01 01:11:23;;;;;;;7.53;3.78;;;11.90;94.90;;;;;;6174963;23;20036;-90
2023/06/01 01:14:10;;;;;;;8.20;3.97;;;12.00;99.90;;;;;;6171626;23;20020;-90
2023/06/01 01:17:07;;;;;;;5.38;3.67;;;11.90;99.90;;;;;;6166393;23;20025;-91
2023/06/01 01:20:08;;;;;;;8.25;3.85;;;11.90;99.90;;;;;;6165927;23;20039;-89
2023/06/01 01:23:33;;;;;;;7.55;4.10;;;11.90;99.90;;;;;;6185107;23;20100;-90
2023/06/01 01:26:27;;;;;;;7.35;3.90;;;11.90;99.90;;;;;;6166447;23;20025;-94
2023/06/01 01:29:16;;;;;;;8.00;3.90;;;11.90;99.90;;;;;;6185294;23;20029;-92
2023/06/01 01:32:05;;;;;;;6.45;3.90;;;11.90;99.90;;;;;;6165363;23;20039;-91
2023/06/01 01:34:53;;;;;;;8.15;4.68;;;11.90;99.90;;;;;;6165288;23;20040;-90
2023/06/01 01:37:55;;;;;;;5.72;3.83;;;12.00;99.90;;;;;;6164117;23;20051;-91
2023/06/01 01:40:44;;;;;;;10.02;4.25;;;11.90;99.90;;;;;;6169099;23;20021;-90
2023/06/01 01:43:32;;;;;;;7.55;4.05;;;11.80;99.90;;;;;;6174798;23;20039;-94
2023/06/01 01:46:28;;;;;;;12.20;4.85;;;11.70;99.90;;;;;;6173206;23;20031;-92
2023/06/01 01:49:41;;;;;;;7.82;4.00;;;11.70;99.90;;;;;;6173486;23;20127;-91
2023/06/01 01:52:39;;;;;;;8.38;4.22;;;11.60;99.90;;;;;;6177046;23;20026;-92
2023/06/01 01:55:28;;;;;;;9.18;4.50;;;11.60;99.90;;;;;;6171406;23;20448;-91
2023/06/01 01:58:16;;;;;;;9.82;4.35;;;11.70;99.90;;;;;;6170573;23;20036;-93
2023/06/01 02:01:07;;;;;;;8.48;4.20;;;11.60;99.90;;;;;;6167392;23;20032;-92
2023/06/01 02:04:09;;;;;;;8.35;3.92;;;11.50;99.90;;;;;;6168331;23;20017;-91
2023/06/01 02:06:58;;;;;;;7.25;4.28;;;11.40;99.90;;;;;;6165673;23;20036;-93
2023/06/01 02:09:48;;;;;;;10.13;4.43;;;11.20;99.90;;;;;;6165500;23;20396;-92
2023/06/01 02:12:36;;;;;;;10.82;4.28;;;11.10;99.90;;;;;;6164617;23;20025;-92
2023/06/01 02:15:23;;;;;;;8.52;4.03;;;11.20;99.90;;;;;;6164779;23;20025;-91
2023/06/01 02:18:11;;;;;;;7.45;3.95;;;11.20;99.90;;;;;;6164705;23;20342;-92
2023/06/01 02:20:58;;;;;;;11.65;4.35;;;11.10;99.90;;;;;;6165209;23;20035;-91
2023/06/01 02:23:48;;;;;;;8.35;4.13;;;11.10;99.90;;;;;;6163997;23;20028;-92
2023/06/01 02:26:35;;;;;;;8.05;4.20;;;11.00;99.90;;;;;;6166374;23;20322;-92
2023/06/01 02:29:25;;;;;;;8.38;4.05;;;10.90;99.90;;;;;;6164541;23;20036;-91
2023/06/01 02:32:15;;;;;;;6.30;4.00;;;11.00;99.90;;;;;;6185647;23;20076;-92
2023/06/01 02:35:03;;;;;;;8.05;4.20;;;10.90;99.90;;;;;;6171328;23;20021;-92
2023/06/01 02:37:50;;;;;;;6.72;4.60;;;10.90;99.90;;;;;;6179804;23;20099;-91
2023/06/01 02:40:38;;;;;;;12.93;4.10;;;11.00;99.90;;;;;;6171119;23;20052;-91
2023/06/01 02:43:28;;;;;;;14.77;5.30;;;11.10;99.90;;;;;;6165477;23;20427;-91
2023/06/01 02:46:20;;;;;;;12.07;4.90;;;11.10;99.90;;;;;;6165571;23;20028;-90
2023/06/01 02:49:09;;;;;;;9.57;4.03;;;10.90;99.90;;;;;;6163780;23;20409;-91
2023/06/01 02:51:58;;;;;;;10.63;4.50;;;10.80;99.90;;;;;;6164071;23;20032;-94
2023/06/01 02:54:45;;;;;;;6.63;3.75;;;10.60;99.90;;;;;;6168072;23;20036;-92
2023/06/01 02:57:36;;;;;;;10.23;4.72;;;10.60;99.90;;;;;;6174594;23;20128;-92
2023/06/01 03:00:23;;;;;;;10.70;4.05;;;10.50;99.90;;;;;;6173772;23;20451;-90
2023/06/01 03:03:13;;;;;;;5.32;3.75;;;10.40;99.90;;;;;;6193667;23;20024;-90
2023/06/01 03:06:02;;;;;;;10.70;4.65;;;10.30;99.90;;;;;;6166768;23;20024;-89
2023/06/01 03:08:49;;;;;;;7.53;4.38;;;10.30;99.90;;;;;;6166298;23;20374;-92
2023/06/01 03:11:36;;;;;;;11.32;4.70;;;10.30;99.90;;;;;;6166413;23;20695;-91
2023/06/01 03:14:24;;;;;;;11.75;4.35;;;10.40;99.90;;;;;;6185615;23;20040;-92
2023/06/01 03:17:11;;;;;;;7.47;3.95;;;10.40;99.90;;;;;;6165886;23;20452;-91
2023/06/01 03:19:59;;;;;;;8.65;4.18;;;10.30;99.90;;;;;;6163616;23;20025;-91
2023/06/01 03:22:46;;;;;;;8.38;4.35;;;10.30;99.90;;;;;;6185821;23;20477;-93
2023/06/01 03:25:34;;;;;;;6.30;4.57;;;10.30;99.90;;;;;;6165443;23;20021;-92
2023/06/01 03:28:21;;;;;;;10.93;4.70;;;10.50;99.90;;;;;;6165851;23;20025;-91
2023/06/01 03:31:11;;;;;;;7.32;4.50;;;10.50;99.90;;;;;;6165340;23;20025;-93
2023/06/01 03:33:58;;;;;;;8.63;4.65;;;10.50;99.90;;;;;;6165425;23;20040;-94
2023/06/01 03:36:47;;;;;;;8.18;4.63;;;10.50;99.90;;;;;;6164006;23;20425;-93
2023/06/01 03:39:35;;;;;;;8.45;4.65;;;10.50;99.90;;;;;;6187523;23;20036;-93
2023/06/01 03:42:22;;;;;;;10.38;5.10;;;10.50;99.90;;;;;;6185890;23;20084;-91
2023/06/01 03:45:11;;;;;;;9.77;4.28;;;10.40;99.90;;;;;;6164532;23;20022;-93
2023/06/01 03:47:59;;;;;;;11.73;4.82;;;10.30;99.90;;;;;;6186369;23;20080;-92
2023/06/01 03:50:46;;;;;;;9.85;4.70;;;10.30;99.90;;;;;;6165241;23;20061;-91
2023/06/01 03:53:34;;;;;;;10.63;4.68;;;10.20;99.90;;;;;;6165625;23;20131;-92
2023/06/01 03:56:22;;;;;;;12.52;5.00;;;10.30;99.90;;;;;;6187401;23;20039;-93
2023/06/01 03:59:10;;;;;;;9.00;4.93;;;10.40;99.90;;;;;;6166009;23;20021;-92
2023/06/01 04:02:05;;;;;;;9.73;5.00;;;10.40;99.90;;;;;;6165861;23;20028;-92
2023/06/01 04:04:53;;;;;;;8.82;4.93;;;10.50;99.90;;;;;;6166547;23;20048;-92
2023/06/01 04:07:42;;;;;;;10.35;5.50;;;10.50;99.90;;;;;;6168067;23;20349;-92
2023/06/01 04:10:29;;;;;;;10.52;5.15;;;10.50;99.90;;;;;;6167569;23;20021;-91
2023/06/01 04:13:17;;;;;;;9.85;4.90;;;10.50;99.90;;;;;;6166998;23;20028;-92
2023/06/01 04:16:05;;;;;;;8.27;4.68;;;10.60;99.90;;;;;;6167478;23;20127;-91
2023/06/01 04:18:52;;;;;;;12.57;5.05;;;10.60;99.90;;;;;;6166100;23;20421;-91
2023/06/01 04:21:40;;;;;;;8.57;5.05;;;10.60;99.90;;;;;;6165633;23;20049;-91
2023/06/01 04:24:27;;;;;;;7.70;4.72;;;10.60;99.90;;;;;;6168107;23;20029;-90
2023/06/01 04:27:15;;;;;;;10.15;4.72;;;10.70;99.90;;;;;;6165366;23;20037;-88
2023/06/01 04:30:07;;;;;;;9.65;4.70;;;10.90;99.90;;;;;;6165280;23;20029;-91
2023/06/01 04:32:55;;;;;;;13.13;4.70;;;11.10;99.90;;;;;;6186451;23;20428;-87
2023/06/01 04:35:43;;;;;;;9.43;4.60;;;11.30;99.90;;;;;;6168354;23;20025;-91
2023/06/01 04:38:34;;;;;;;6.78;4.72;;;11.40;99.90;;;;;;6169210;23;20036;-92
2023/06/01 04:41:39;;;;;;;13.38;4.70;;;11.40;99.90;;;;;;6171946;23;20081;-90
2023/06/01 04:44:27;;;;;;;12.18;5.07;;;11.60;99.90;;;;;;6165719;23;20040;-89
2023/06/01 04:47:17;;;;;;;9.10;4.90;;;11.70;99.90;;;;;;6165182;23;20040;-92
2023/06/01 04:50:09;;;;;;;11.98;5.07;;;11.80;99.90;;;;;;6164835;23;20422;-93
2023/06/01 04:52:57;;;;;;;11.60;4.63;;;11.90;99.90;;;;;;6166027;23;20040;-93
2023/06/01 04:55:48;;;;;;;10.43;5.55;;;12.00;99.90;;;;;;6163088;23;20064;-86
2023/06/01 04:58:55;;;;;;;9.73;4.65;;;12.10;99.90;;;;;;6183985;23;20044;-87
2023/06/01 05:01:42;;;;;;;19.88;5.30;;;12.10;99.90;;;;;;6166392;23;20036;-87
2023/06/01 05:04:30;;;;;;;10.23;4.72;;;12.10;99.90;;;;;;6164251;23;20073;-85
2023/06/01 05:07:17;;;;;;;11.95;5.22;;;12.10;99.90;;;;;;6168700;23;20025;-86
2023/06/01 05:10:09;;;;;;;10.05;4.70;;;12.20;99.90;;;;;;6168340;23;20333;-87
2023/06/01 05:12:57;;;;;;;8.63;5.07;;;12.30;99.90;;;;;;6165018;23;20052;-87
2023/06/01 05:15:45;;;;;;;8.13;4.80;;;12.40;99.90;;;;;;6163495;23;20029;-87
2023/06/01 05:18:33;;;;;;;7.88;4.45;;;12.50;99.90;;;;;;6165195;23;20437;-86
2023/06/01 05:21:21;;;;;;;12.20;4.28;;;12.60;99.90;;;;;;6162321;23;20021;-85
2023/06/01 05:24:08;;;;;;;12.27;5.20;;;12.70;99.90;;;;;;6164357;23;20028;-86
2023/06/01 05:26:56;;;;;;;10.50;4.63;;;12.90;99.90;;;;;;6164352;23;20021;-88
2023/06/01 05:29:43;;;;;;;15.20;5.07;;;13.10;99.90;;;;;;6164878;23;20039;-87
2023/06/01 05:32:30;;;;;;;11.85;4.68;;;13.20;99.90;;;;;;6163514;23;20106;-86
2023/06/01 05:35:20;;;;;;;13.80;4.57;;;13.40;99.90;;;;;;6164180;23;20325;-87
2023/06/01 05:38:10;;;;;;;13.50;4.97;;;13.60;99.90;;;;;;6164504;23;20029;-93
2023/06/01 05:40:58;;;;;;;12.52;4.88;;;13.80;99.90;;;;;;6168839;23;20031;-93
2023/06/01 05:43:50;;;;;;;10.57;4.72;;;14.00;99.90;;;;;;6168255;23;20021;-94
2023/06/01 05:46:38;;;;;;;11.80;4.43;;;14.10;99.90;;;;;;6166103;23;20021;-89
2023/06/01 05:49:25;;;;;;;13.02;4.38;;;14.20;99.90;;;;;;6175889;23;20040;-90
2023/06/01 05:52:20;;;;;;;9.35;4.13;;;14.30;99.90;;;;;;6187116;23;20100;-90
2023/06/01 05:55:08;;;;;;;8.65;4.00;;;14.40;99.90;;;;;;6164115;23;20047;-87
2023/06/01 05:58:03;;;;;;;7.07;3.88;;;14.60;99.90;;;;;;6174250;23;20028;-90
2023/06/01 06:00:50;;;;;;;13.02;4.32;;;14.70;99.90;;;;;;6173859;23;20398;-91
2023/06/01 06:03:38;;;;;;;8.05;3.90;;;14.80;99.90;;;;;;6174679;23;20076;-89
2023/06/01 06:06:31;;;;;;;12.15;4.72;;;14.90;92.30;;;;;;6174801;23;20025;-89
2023/06/01 06:09:19;;;;;;;7.78;3.83;;;15.00;66.30;;;;;;6166203;23;20032;-89
2023/06/01 06:12:10;;;;;;;8.25;3.90;;;15.20;33.40;;;;;;6166485;23;20108;-91
2023/06/01 06:14:58;;;;;;;10.50;4.15;;;15.30;43.90;;;;;;6163289;23;20358;-91
2023/06/01 06:17:45;;;;;;;8.48;3.83;;;15.50;43.20;;;;;;6182235;23;20044;-90
2023/06/01 06:20:49;;;;;;;11.38;3.58;;;15.60;31.30;;;;;;6165165;23;20029;-93
2023/06/01 06:23:50;;;;;;;8.95;3.72;;;15.80;29.90;;;;;;6165789;23;20416;-90
2023/06/01 06:26:37;;;;;;;9.48;3.78;;;15.90;3.00;;;;;;6164337;23;20035;-90
2023/06/01 06:29:25;;;;;;;9.38;3.92;;;16.00;1.00;;;;;;6163321;23;20163;-91
2023/06/01 06:32:24;;;;;;;;;;;;;;;;;;;;;
2023/06/01 06:35:16;;;;;;;9.02;4.20;;;16.30;1.00;;;;;;6185487;23;20433;-93
2023/06/01 06:38:06;;;;;;;13.32;3.97;;;16.50;1.00;;;;;;6164414;23;20021;-92
2023/06/01 06:41:13;;;;;;;8.93;3.10;;;16.80;1.00;;;;;;6185361;23;20029;-90
2023/06/01 06:44:14;;;;;;;11.77;3.92;;;17.30;1.00;;;;;;6166106;23;20025;-93
2023/06/01 06:47:24;;;;;;;;;;;17.50;1.00;;;;;;6051696;23;20023;-92
2023/06/01 06:50:17;;;;;;;9.95;3.83;;;17.60;1.00;;;;;;6053127;23;19966;-92
2023/06/01 06:53:34;;;;;;;8.35;4.13;;;17.70;1.00;;;;;;6054538;23;20026;-91
2023/06/01 06:56:23;;;;;;;8.00;3.85;;;17.90;1.00;;;;;;6047969;23;20400;-92
2023/06/01 06:59:17;;;;;;;13.00;4.22;;;18.20;1.00;;;;;;6048564;23;20173;-91
2023/06/01 07:02:09;;;;;;;6.63;3.60;;;18.50;1.00;;;;;;6044914;23;20114;-87
2023/06/01 07:05:08;;;;;;;8.70;3.50;;;18.90;1.00;;;;;;6046943;23;20023;-93
2023/06/01 07:07:56;;;;;;;6.80;4.20;;;19.40;1.00;;;;;;6045729;23;20114;-92
2023/06/01 07:10:44;;;;;;;9.38;3.72;;;20.10;1.00;;;;;;6046808;23;20070;-91
2023/06/01 07:13:57;;;;;;;6.57;3.45;;;20.50;1.00;;;;;;6048002;23;20044;-93
2023/06/01 07:17:30;;;;;;;9.65;3.88;;;21.20;1.00;;;;;;6065179;23;20022;-91
2023/06/01 07:21:19;;;;;;;13.80;4.13;;;21.80;1.00;;;;;;5998013;23;20163;-94
2023/06/01 07:24:27;;;;;;;11.13;4.25;;;22.20;1.00;;;;;;5979625;23;20357;-93
2023/06/01 07:27:16;;;;;;;12.13;4.07;;;22.50;1.00;;;;;;6076731;23;20437;-93
2023/06/01 07:30:26;;;;;;;7.47;3.85;;;22.90;1.00;;;;;;6080126;23;20089;-94
2023/06/01 07:34:12;;;;;;;8.38;3.65;;;23.30;1.00;;;;;;6100235;23;20034;-92
2023/06/01 07:37:08;;;;;;;9.68;3.70;;;23.80;1.00;;;;;;6003758;23;20029;-93
2023/06/01 07:40:11;;;;;;;15.43;3.78;;;24.40;1.00;;;;;;6021660;23;20090;-91
2023/06/01 07:44:05;;;;;;;6.55;3.25;;;24.50;1.00;;;;;;6026831;23;20038;-91
2023/06/01 07:55:15;;;;;;;7.32;3.38;;;25.80;1.00;;;;;;6101334;23;20410;-90
2023/06/01 07:58:04;;;;;;;8.00;3.70;;;25.20;1.00;;;;;;6074476;23;20027;-87
2023/06/01 08:01:20;;;;;;;9.13;4.13;;;25.20;1.00;;;;;;6075626;23;20026;-88
2023/06/01 08:04:37;;;;;;;7.25;3.88;;;26.10;1.00;;;;;;6078181;23;20026;-93
2023/06/01 08:07:22;;;;;;;6.90;3.42;;;26.40;1.00;;;;;;6099094;23;20026;-93
2023/06/01 08:11:01;;;;;;;10.68;3.88;;;26.40;1.00;;;;;;6149070;23;20024;-89
2023/06/01 08:14:19;;;;;;;;;;;;;;;;;;;;;
2023/06/01 08:17:11;;;;;;;6.45;3.80;;;27.10;1.00;;;;;;6186395;23;20113;-90
2023/06/01 08:19:59;;;;;;;8.75;3.83;;;27.30;1.00;;;;;;6164601;23;20080;-89
2023/06/01 08:22:46;;;;;;;8.10;3.50;;;27.30;1.00;;;;;;6185892;23;20032;-89
2023/06/01 08:25:34;;;;;;;7.68;3.67;;;27.90;1.00;;;;;;6165288;23;20040;-89
2023/06/01 08:28:24;;;;;;;7.30;3.70;;;28.40;1.00;;;;;;6185857;23;20389;-89
2023/06/01 08:31:48;;;;;;;8.30;3.60;;;28.40;1.00;;;;;;6171622;23;20447;-91
2023/06/01 08:35:18;;;;;;;10.38;3.70;;;28.40;1.00;;;;;;6167941;23;20350;-88
2023/06/01 08:38:09;;;;;;;13.10;4.32;;;28.50;1.00;;;;;;6161520;23;20326;-89
2023/06/01 08:41:22;;;;;;;9.82;3.72;;;28.90;1.00;;;;;;6186050;23;20080;-91
2023/06/01 08:44:23;;;;;;;9.82;4.07;;;28.70;1.00;;;;;;6166239;23;20017;-90
2023/06/01 08:47:41;;;;;;;8.05;4.22;;;28.90;1.00;;;;;;6168820;23;20025;-85
2023/06/01 08:50:34;;;;;;;12.93;4.50;;;28.80;1.00;;;;;;6166244;23;20107;-89
2023/06/01 08:53:50;;;;;;;7.47;3.47;;;29.00;1.00;;;;;;6022925;23;20175;-88
2023/06/01 08:56:42;;;;;;;6.43;3.92;;;29.50;1.00;;;;;;6037378;23;20110;-87
2023/06/01 08:59:36;;;;;;;9.35;3.67;;;29.50;1.00;;;;;;6041539;23;20039;-92
2023/06/01 09:02:49;;;;;;;8.07;3.80;;;29.50;1.00;;;;;;6037871;23;20023;-92
2023/06/01 09:06:05;;;;;;;9.73;4.40;;;29.90;1.00;;;;;;6037402;23;20023;-90
2023/06/01 09:09:22;;;;;;;7.38;4.13;;;29.90;1.00;;;;;;6041102;23;20039;-91
2023/06/01 09:12:34;;;;;;;7.63;3.95;;;29.80;1.00;;;;;;6043573;23;20047;-91
2023/06/01 09:15:27;;;;;;;5.43;4.15;;;30.30;1.00;;;;;;6038977;23;20110;-90
2023/06/01 09:18:16;;;;;;;8.98;4.38;;;30.80;1.00;;;;;;6038388;23;20423;-91
2023/06/01 09:21:27;;;;;;;;;;;;;;;;;;;;;
2023/06/01 09:24:56;;;;;;;7.55;3.50;;;31.90;1.00;;;;;;6099426;23;20061;-90
2023/06/01 09:28:06;;;;;;;8.43;4.03;;;32.00;1.00;;;;;;6114348;23;20037;-90
2023/06/01 09:30:59;;;;;;;12.43;4.20;;;31.60;1.00;;;;;;6109508;23;20068;-90
2023/06/01 09:34:08;;;;;;;9.38;4.88;;;31.30;1.00;;;;;;6138179;23;20363;-89
2023/06/01 09:38:15;;;;;;;9.02;4.05;;;31.30;1.00;;;;;;6110692;23;20029;-91
2023/06/01 09:43:44;;;;;;;7.93;4.07;;;31.00;1.00;;;;;;6189194;23;20037;-90
2023/06/01 09:46:32;;;;;;;7.20;4.35;;;31.30;1.00;;;;;;6178883;23;20029;-90
2023/06/01 09:54:27;;;;;;;8.15;4.32;;;30.50;1.00;;;;;;6128088;23;20039;-92
2023/06/01 09:57:25;;;;;;;11.07;4.72;;;30.20;1.00;;;;;;6167090;23;20364;-90
2023/06/01 10:00:33;;;;;;;;;;;;;;;;;;;;;
2023/06/01 10:04:12;;;;;;;9.70;4.30;;;30.90;1.00;;;;;;6187978;23;20032;-92
2023/06/01 10:07:46;;;;;;;;;;;;;;;;;;;;;
2023/06/01 10:11:04;;;;;;;8.25;4.45;;;29.00;1.00;;;;;;6090789;23;20040;-93
2023/06/01 10:13:59;;;;;;;5.63;4.18;;;29.60;1.00;;;;;;6165554;23;20083;-91
2023/06/01 10:16:53;;;;;;;6.88;4.28;;;30.20;1.00;;;;;;6183639;23;20381;-89
2023/06/01 10:23:07;;;;;;;7.90;4.50;;;32.00;1.00;;;;;;6186098;23;20033;-93
2023/06/01 10:26:15;;;;;;;7.82;4.18;;;32.50;1.00;;;;;;6167554;23;20072;-88
2023/06/01 10:29:51;;;;;;;7.90;4.00;;;32.70;1.00;;;;;;6166771;23;20131;-92
2023/06/01 10:32:37;;;;;;;9.15;4.40;;;32.90;1.00;;;;;;6184319;23;20104;-89
2023/06/01 10:35:33;;;;;;;8.73;4.03;;;33.50;1.00;;;;;;6164433;23;20029;-91
2023/06/01 10:38:44;;;;;;;9.02;4.40;;;34.00;1.00;;;;;;6169199;23;20032;-89
2023/06/01 10:41:35;;;;;;;7.53;4.40;;;34.00;1.00;;;;;;6185383;23;20029;-91
2023/06/01 10:49:24;;;;;;;7.35;3.90;;;33.30;1.00;;;;;;6187378;23;20029;-92
2023/06/01 10:53:13;;;;;;;7.40;4.22;;;34.30;1.00;;;;;;6099006;23;20133;-91
2023/06/01 11:05:07;;;;;;;8.63;4.15;;;33.60;1.00;;;;;;6109483;23;20003;-94
2023/06/01 11:08:22;;;;;;;7.00;4.20;;;34.50;1.00;;;;;;6174381;23;20044;-93
2023/06/01 11:12:29;;;;;;;9.18;4.82;;;34.10;1.00;;;;;;6040793;23;20031;-92
2023/06/01 11:15:18;;;;;;;9.10;4.28;;;33.70;1.00;;;;;;6038034;23;20204;-91
2023/06/01 11:22:54;;;;;;;5.88;4.15;;;33.80;1.00;;;;;;6010626;23;20076;-92
2023/06/01 11:26:03;;;;;;;9.10;4.10;;;32.60;1.00;;;;;;6039231;23;20030;-92
2023/06/01 11:34:42;;;;;;;;;;;;;;;;;;;;;
2023/06/01 11:46:51;;;;;;;6.45;4.28;;;33.70;1.00;;;;;;6043784;23;20051;-93
2023/06/01 11:54:08;;;;;;;4.03;3.63;;;34.60;1.00;;;;;;6192384;23;20048;-91
2023/06/01 11:57:19;;;;;;;5.15;3.80;;;34.30;1.00;;;;;;6176221;23;20025;-91
2023/06/01 12:00:13;;;;;;;7.90;4.25;;;34.40;1.00;;;;;;6190312;23;20032;-91
2023/06/01 12:03:12;;;;;;;7.15;3.88;;;34.60;1.00;;;;;;6185559;23;20097;-90
2023/06/01 12:06:00;;;;;;;8.32;3.67;;;34.60;1.00;;;;;;6164532;23;20032;-91
2023/06/01 12:08:52;;;;;;;6.25;3.90;;;34.50;1.00;;;;;;6166566;23;20108;-91
2023/06/01 12:11:44;;;;;;;4.28;3.22;;;35.10;1.00;;;;;;6184338;23;20474;-91
2023/06/01 12:14:34;;;;;;;9.13;3.90;;;35.50;1.00;;;;;;6186879;23;20105;-93
2023/06/01 12:17:22;;;;;;;6.57;4.05;;;36.00;1.00;;;;;;6166860;23;20021;-94
2023/06/01 12:20:41;;;;;;;7.35;4.00;;;35.80;1.00;;;;;;6153126;23;20029;-88
2023/06/01 12:23:29;;;;;;;5.93;4.00;;;36.20;1.00;;;;;;6164700;23;20028;-86
2023/06/01 12:26:16;;;;;;;9.30;4.30;;;35.70;1.00;;;;;;6163943;23;20036;-89
2023/06/01 12:29:03;;;;;;;7.70;3.80;;;34.90;1.00;;;;;;6186784;23;20036;-89
2023/06/01 12:31:54;;;;;;;5.63;4.20;;;34.50;1.00;;;;;;6186863;23;20036;-91
2023/06/01 12:34:48;;;;;;;5.57;3.83;;;34.60;1.00;;;;;;6185666;23;20132;-89
2023/06/01 12:37:38;;;;;;;5.93;3.67;;;35.00;1.00;;;;;;6164419;23;20029;-91
2023/06/01 12:40:25;;;;;;;9.45;4.00;;;35.30;1.00;;;;;;6184859;23;20029;-91
2023/06/01 12:43:20;;;;;;;5.82;4.15;;;35.30;1.00;;;;;;6164995;23;20096;-93
2023/06/01 12:46:21;;;;;;;6.78;4.15;;;32.80;1.00;;;;;;6164365;23;20052;-91
2023/06/01 12:49:21;;;;;;;11.32;4.15;;;32.90;1.00;;;;;;6186457;23;20083;-94
2023/06/01 12:52:57;;;;;;;7.90;4.35;;;34.00;1.00;;;;;;6170198;23;20393;-91
2023/06/01 12:55:54;;;;;;;8.50;4.18;;;34.60;1.00;;;;;;6163736;23;20040;-94
2023/06/01 12:58:51;;;;;;;6.43;3.78;;;35.40;1.00;;;;;;6165892;23;20400;-91
2023/06/01 13:02:03;;;;;;;7.38;3.95;;;35.30;1.00;;;;;;6146973;23;20377;-94
2023/06/01 13:04:50;;;;;;;7.80;4.20;;;34.70;1.00;;;;;;6165483;23;20198;-90
2023/06/01 13:07:39;;;;;;;5.85;3.63;;;35.10;1.00;;;;;;6164496;23;20028;-90
2023/06/01 13:10:29;;;;;;;7.13;4.07;;;35.80;1.00;;;;;;6165772;23;20029;-90
2023/06/01 13:13:17;;;;;;;7.25;3.85;;;35.40;1.00;;;;;;6184978;23;20021;-88
2023/06/01 13:16:17;;;;;;;7.38;3.92;;;35.90;1.00;;;;;;6187163;23;20029;-90
2023/06/01 13:19:29;;;;;;;6.85;3.83;;;36.80;1.00;;;;;;6170475;23;20518;-87
2023/06/01 13:22:19;;;;;;;4.97;4.00;;;37.40;1.00;;;;;;6163370;23;20033;-90
2023/06/01 13:25:51;;;;;;;7.90;3.88;;;37.00;1.00;;;;;;6164184;23;20033;-92
2023/06/01 13:28:43;;;;;;;10.82;3.97;;;36.10;1.00;;;;;;6186007;23;20052;-91
2023/06/01 13:31:35;;;;;;;8.27;4.07;;;35.70;1.00;;;;;;6165136;23;20035;-88
2023/06/01 13:34:36;;;;;;;6.15;3.67;;;36.00;1.00;;;;;;6182425;23;20470;-88
2023/06/01 13:37:27;;;;;;;6.43;3.90;;;36.40;1.00;;;;;;6146329;23;20036;-91
2023/06/01 13:40:18;;;;;;;6.70;3.58;;;36.20;1.00;;;;;;6164309;23;20036;-89
2023/06/01 13:43:37;;;;;;;7.78;4.20;;;37.10;1.00;;;;;;6172669;23;20088;-93
2023/06/01 13:50:49;;;;;;;6.38;4.40;;;36.40;1.00;;;;;;6053514;23;20035;-91
2023/06/01 13:54:23;;;;;;;;;;;;;;;;;;;;;
2023/06/01 13:57:28;;;;;;;6.80;4.00;;;34.90;1.00;;;;;;6167197;23;20052;-93
2023/06/01 14:00:51;;;;;;;6.47;4.15;;;34.30;1.00;;;;;;6183741;23;20005;-90
2023/06/01 14:03:40;;;;;;;11.93;4.50;;;33.70;1.00;;;;;;6173876;23;20040;-92
2023/06/01 14:19:16;;;;;;;6.32;4.10;;;29.50;1.00;;;;;;6092778;23;20308;-92
2023/06/01 14:38:47;;;;;;;9.30;4.18;;;32.60;1.00;;;;;;6041906;23;20030;-91
2023/06/01 14:49:57;;;;;;;11.02;3.95;;;32.10;1.00;;;;;;6024589;23;20362;-93
2023/06/01 14:52:59;;;;;;;8.68;4.50;;;32.30;1.00;;;;;;6022899;23;20034;-92
2023/06/01 14:55:47;;;;;;;6.35;3.95;;;32.10;1.00;;;;;;6186594;23;20108;-89
2023/06/01 14:58:44;;;;;;;6.50;3.53;;;32.60;1.00;;;;;;6185112;23;20021;-92
2023/06/01 15:01:34;;;;;;;8.38;3.80;;;33.40;1.00;;;;;;6167501;23;20032;-93
2023/06/01 15:13:09;;;;;;;5.25;3.50;;;33.00;1.00;;;;;;5920749;24;20028;-90
2023/06/01 15:16:08;;;;;;;6.13;3.50;;;33.40;1.00;;;;;;5913024;24;20058;-91
2023/06/01 15:19:22;;;;;;;5.60;3.67;;;32.80;1.00;;;;;;5927813;24;20032;-90
2023/06/01 15:22:19;;;;;;;8.82;3.67;;;32.10;1.00;;;;;;5955970;23;20027;-89
2023/06/01 15:25:11;;;;;;;6.68;3.50;;;32.60;1.00;;;;;;6193505;23;20418;-91
2023/06/01 15:28:01;;;;;;;7.18;3.33;;;33.20;1.00;;;;;;6170158;23;20328;-88
2023/06/01 15:30:49;;;;;;;7.90;3.53;;;32.80;1.00;;;;;;6187934;23;20036;-91
2023/06/01 15:33:36;;;;;;;7.25;3.38;;;32.30;1.00;;;;;;6198446;23;20048;-90
2023/06/01 15:36:24;;;;;;;8.07;3.40;;;32.40;1.00;;;;;;6175542;23;20031;-90
2023/06/01 15:39:20;;;;;;;6.70;2.90;;;31.80;1.00;;;;;;6171322;23;20512;-91
2023/06/01 15:42:14;;;;;;;8.93;3.40;;;31.80;1.00;;;;;;6191991;23;20492;-92
2023/06/01 15:45:06;;;;;;;4.63;3.40;;;32.00;1.00;;;;;;6195984;23;20029;-93
2023/06/01 15:47:58;;;;;;;4.10;3.13;;;32.20;1.00;;;;;;6194705;23;20029;-93
2023/06/01 15:51:35;;;;;;;6.68;3.30;;;32.20;1.00;;;;;;6170719;23;20017;-92
2023/06/01 15:54:40;;;;;;;4.88;2.72;;;32.40;1.00;;;;;;6173794;23;20024;-90
2023/06/01 15:58:01;;;;;;;6.03;2.80;;;32.30;1.00;;;;;;6170928;23;20029;-92
2023/06/01 16:00:56;;;;;;;7.80;3.05;;;31.60;1.00;;;;;;6192896;23;20079;-93
2023/06/01 16:04:03;;;;;;;7.30;3.72;;;31.00;1.00;;;;;;6179687;23;20044;-91
2023/06/01 16:06:52;;;;;;;8.35;2.53;;;30.90;1.00;;;;;;6175503;23;20029;-89
2023/06/01 16:09:50;;;;;;;6.95;2.95;;;30.90;1.00;;;;;;6175522;23;20017;-94
2023/06/01 16:12:47;;;;;;;4.87;2.43;;;30.50;1.00;;;;;;6175006;23;20056;-91
2023/06/01 16:15:37;;;;;;;7.65;2.85;;;30.00;1.00;;;;;;6195579;23;20251;-93
2023/06/01 16:18:32;;;;;;;10.23;3.03;;;29.90;1.00;;;;;;6191436;23;20115;-91
2023/06/01 16:21:41;;;;;;;8.85;2.42;;;29.50;1.00;;;;;;6171364;23;20076;-93
2023/06/01 16:24:40;;;;;;;3.72;2.30;;;28.80;1.00;;;;;;6193076;23;20124;-94
2023/06/01 16:27:30;;;;;;;7.65;2.53;;;28.80;1.00;;;;;;6172782;23;20084;-90
2023/06/01 16:30:58;;;;;;;9.73;2.47;;;28.50;1.00;;;;;;6173716;23;20033;-91
2023/06/01 16:33:52;;;;;;;4.57;2.40;;;28.10;1.00;;;;;;6174586;23;20028;-93
2023/06/01 16:37:41;;;;;;;9.55;2.00;;;27.70;1.00;;;;;;6089804;23;20088;-90
2023/06/01 16:40:49;;;;;;;;;;;;;;;;;;;;;
2023/06/01 16:47:40;;;;;;;7.43;2.30;;;26.70;1.00;;;;;;6111845;23;20022;-93
2023/06/01 16:50:57;;;;;;;;;;;;;;;;;;;;;
2023/06/01 16:53:51;;;;;;;6.80;2.25;;;26.10;1.00;;;;;;6103285;23;20374;-93
2023/06/01 16:56:41;;;;;;;5.15;2.20;;;25.80;1.00;;;;;;6102149;23;20018;-92
2023/06/01 16:59:28;;;;;;;6.32;2.42;;;25.60;1.00;;;;;;6129671;23;20036;-90
2023/06/01 17:02:27;;;;;;;4.78;2.03;;;25.40;1.00;;;;;;6192231;23;20040;-93
2023/06/01 17:05:35;;;;;;;3.67;2.20;;;25.20;1.00;;;;;;6176692;23;20025;-91
2023/06/01 17:08:25;;;;;;;8.18;2.60;;;25.00;1.00;;;;;;6193777;23;20488;-91
2023/06/01 17:11:50;;;;;;;3.83;1.80;;;25.00;1.00;;;;;;6171786;23;20027;-93
2023/06/01 17:14:43;;;;;;;5.45;2.60;;;24.80;1.00;;;;;;6175557;23;20025;-93
2023/06/01 17:17:32;;;;;;;52.65;33.67;;;24.70;1.00;;;;;;6173171;23;20029;-91
2023/06/01 17:20:40;;;;;;;12.52;4.45;;;24.60;1.00;;;;;;6192961;23;20021;-92
2023/06/01 17:23:30;;;;;;;5.47;3.25;;;24.60;1.00;;;;;;6191127;23;20087;-93
2023/06/01 17:26:32;;;;;;;10.90;4.95;;;24.40;1.00;;;;;;6192427;23;20025;-94
2023/06/01 17:33:44;;;;;;;5.07;2.40;;;24.30;1.00;;;;;;6169026;23;20495;-92